Huvudsida
METAR-TAF:

METAR-TAF

Flygplatser :

Trondheims flygplats. Værnes

Trondheim, Norge

latitud: 63-28N, longitud: 010-56E, höjd: 1 m

Aktuellt väderrapport

Denna rapport gjordes för 8 minuter sedan, klockan 16:50 UTC
Vind 11 kt från syd/sydväst, varierande mellan sydost och väst/sydväst
Temperatur 27°C
Fuktighet 21%
Tryck 1015 hPa
Sikt 10 km eller mer
Inga moln under 1 500 m eller inga cumulonimbus

METAR: ENVA 221650Z 20011KT 140V240 CAVOK 27/03 Q1015 NOSIG RMK WIND 670FT 20010KT

Tid: 18:58 (16:58 UTC)

Väderprognos

Denna rapport gjordes för 5 timmar och 58 minuter sedan, klockan 11:00 UTC
Prognos gäller från 22 kl. 12 UTC till 23 kl. 12 UTC
Vind 12 kt från syd/sydost
Sikt 10 km eller mer
Inga moln under 1 500 m eller inga cumulonimbus
Blir
från 22 kl. 17 UTC till 22 kl. 19 UTC
Vind 5 kt från ost
Blir
från 23 kl. 08 UTC till 23 kl. 10 UTC
Vind 12 kt från syd/sydost

TAF: ENVA 221100Z 2212/2312 16012KT CAVOK BECMG 2217/2219 10005KT BECMG 2308/2310 16012KT

Aktuella väderrapporter och prognoser från 4000 flygplatser (METAR- och TAF-rapporter).

De tillgängliga stationerna syns som gula och röda prickar på kartan.

För musen över prickarna för att se namnen på stationerna.

Klicka sedan för att få väderrapporter och prognoser.

För att ändra kartan: Klicka på de gröna knapparna med ett svart kors på för att zooma in; den gröna knappen med ett streck på för att zooma ut; eller på de gröna pilarna för angränsande kartor.


METAR-TAF: